Time;durP1;ratioP1;P1;durP2;ratioP2;P2;SDS_P1;SDS_P2;PMS_P1;PMS_P2;Temp;Humidity;BMP_temperature;BMP_pressure;BME280_temperature;BME280_humidity;BME280_pressure;Samples;Min_cycle;Max_cycle;Signal;HPM_P1;HPM_P2
2024/02/10 00:00:22;;;;;;;41.20;21.00;;;;;;;5.93;53.15;99130.64;108239;1252;59664;-64
2024/02/10 00:02:51;;;;;;;36.70;19.50;;;;;;;5.94;53.03;99128.71;108136;1257;73790;-64
2024/02/10 00:05:21;;;;;;;39.20;20.70;;;;;;;5.83;53.18;99122.45;108110;1254;70287;-63
2024/02/10 00:07:55;;;;;;;39.70;20.70;;;;;;;5.67;53.72;99121.56;108025;1254;71770;-64
2024/02/10 00:10:25;;;;;;;40.50;21.10;;;;;;;5.60;53.98;99118.16;108072;1254;61826;-65
2024/02/10 00:12:57;;;;;;;44.50;22.00;;;;;;;5.52;54.09;99104.65;108095;1253;59019;-65
2024/02/10 00:15:27;;;;;;;41.70;21.60;;;;;;;5.65;53.96;99094.11;108083;1254;73935;-67
2024/02/10 00:17:54;;;;;;;40.90;18.70;;;;;;;5.65;53.98;99093.78;108147;1253;69357;-67
2024/02/10 00:20:25;;;;;;;41.40;21.60;;;;;;;5.58;54.12;99090.55;108122;1252;72752;-63
2024/02/10 00:22:53;;;;;;;44.00;21.80;;;;;;;5.67;53.85;99088.48;108158;1253;61665;-64
2024/02/10 00:25:21;;;;;;;43.90;21.60;;;;;;;5.71;53.71;99087.66;108024;1254;60305;-64
2024/02/10 00:27:53;;;;;;;47.90;22.20;;;;;;;5.70;53.95;99090.33;108116;1254;72966;-66
2024/02/10 00:30:23;;;;;;;37.70;20.40;;;;;;;5.81;53.54;99087.68;108104;1253;70086;-67
2024/02/10 00:32:51;;;;;;;41.50;20.50;;;;;;;5.85;53.39;99094.33;108132;1254;73248;-66
2024/02/10 00:35:22;;;;;;;42.50;21.80;;;;;;;5.95;53.12;99093.83;108030;1254;61734;-66
2024/02/10 00:37:56;;;;;;;31.30;17.50;;;;;;;5.77;53.57;99092.70;108133;1253;60575;-63
2024/02/10 00:40:24;;;;;;;38.90;21.50;;;;;;;5.78;53.61;99095.10;108083;1254;73230;-66
2024/02/10 00:42:51;;;;;;;41.60;21.40;;;;;;;5.86;53.50;99094.30;108290;1252;68948;-67
2024/02/10 00:45:19;;;;;;;36.60;19.40;;;;;;;5.94;53.31;99095.61;108129;1254;71553;-66
2024/02/10 00:47:47;;;;;;;39.10;21.70;;;;;;;5.81;53.35;99092.23;108062;1254;61836;-68
2024/02/10 00:50:17;;;;;;;38.40;20.70;;;;;;;5.78;53.63;99093.18;108090;1254;60311;-63
2024/02/10 00:52:49;;;;;;;42.30;22.00;;;;;;;5.78;53.48;99091.63;108061;1254;72685;-66
2024/02/10 00:55:18;;;;;;;39.60;20.10;;;;;;;5.57;54.22;99090.05;108182;1253;70349;-64
2024/02/10 00:57:46;;;;;;;40.20;22.20;;;;;;;5.44;54.37;99083.34;108065;1254;71525;-65
2024/02/10 01:00:17;;;;;;;42.30;22.60;;;;;;;5.59;54.19;99084.94;108125;1254;60571;-65
2024/02/10 01:02:45;;;;;;;38.10;19.70;;;;;;;5.67;53.86;99075.27;108190;1254;60306;-65
2024/02/10 01:05:14;;;;;;;36.60;19.50;;;;;;;5.61;54.06;99074.75;108039;1254;73994;-65
2024/02/10 01:07:46;;;;;;;39.50;21.00;;;;;;;5.61;54.10;99071.98;108083;1254;69291;-64
2024/02/10 01:10:13;;;;;;;40.40;22.20;;;;;;;5.49;54.53;99071.16;108060;1254;71414;-64
2024/02/10 01:12:41;;;;;;;40.40;21.70;;;;;;;5.59;54.18;99067.70;107983;1254;61786;-65
2024/02/10 01:15:09;;;;;;;41.50;21.30;;;;;;;5.55;54.24;99064.52;108105;1252;60072;-65
2024/02/10 01:17:36;;;;;;;46.70;23.40;;;;;;;5.64;54.03;99065.78;108150;1253;73885;-65
2024/02/10 01:20:07;;;;;;;43.10;23.10;;;;;;;5.60;54.23;99058.95;108189;1254;69954;-65
2024/02/10 01:22:34;;;;;;;42.60;22.40;;;;;;;5.52;54.32;99064.29;108139;1254;71100;-64
2024/02/10 01:25:02;;;;;;;40.60;21.80;;;;;;;5.55;54.40;99064.01;108095;1254;61662;-67
2024/02/10 01:27:30;;;;;;;40.40;21.30;;;;;;;5.62;54.20;99065.67;108032;1253;60432;-66
2024/02/10 01:29:57;;;;;;;36.20;19.40;;;;;;;5.54;54.44;99069.59;107941;1254;73769;-66
2024/02/10 01:32:25;;;;;;;40.90;21.80;;;;;;;5.59;54.34;99070.30;108101;1254;70313;-66
2024/02/10 01:34:53;;;;;;;41.40;21.60;;;;;;;5.66;54.12;99069.01;108092;1254;72632;-66
2024/02/10 01:37:21;;;;;;;39.10;21.70;;;;;;;5.56;54.53;99070.42;108072;1254;61716;-66
2024/02/10 01:39:53;;;;;;;45.60;22.70;;;;;;;5.55;54.52;99073.91;108055;1254;60954;-66
2024/02/10 01:42:27;;;;;;;41.50;21.30;;;;;;;5.77;53.94;99075.46;108028;1254;72977;-64
2024/02/10 01:44:58;;;;;;;44.30;22.60;;;;;;;5.68;54.08;99078.36;108095;1253;68940;-65
2024/02/10 01:47:25;;;;;;;41.90;22.70;;;;;;;5.74;54.04;99080.94;108052;1257;71982;-65
2024/02/10 01:49:53;;;;;;;37.90;19.90;;;;;;;5.70;54.19;99075.52;108053;1254;60581;-64
2024/02/10 01:52:22;;;;;;;39.60;22.20;;;;;;;5.65;54.15;99069.55;108066;1253;60335;-66
2024/02/10 01:54:49;;;;;;;42.10;22.40;;;;;;;5.66;54.36;99067.80;107953;1254;72062;-66
2024/02/10 01:57:17;;;;;;;43.00;22.00;;;;;;;5.30;55.11;99067.26;108041;1254;69056;-66
2024/02/10 01:59:47;;;;;;;34.70;19.80;;;;;;;5.45;54.82;99070.41;107985;1254;72737;-65
2024/02/10 02:02:15;;;;;;;;;;;;;;;5.72;54.24;99070.55;108107;1254;60400;-66
2024/02/10 02:04:43;;;;;;;41.50;21.70;;;;;;;5.76;53.96;99070.09;108111;1254;60437;-66
2024/02/10 02:07:10;;;;;;;48.70;23.80;;;;;;;5.91;53.61;99074.45;108059;1257;73820;-66
2024/02/10 02:09:38;;;;;;;41.70;22.10;;;;;;;5.87;53.75;99075.61;108023;1254;69992;-66
2024/02/10 02:12:09;;;;;;;42.60;22.60;;;;;;;5.83;54.08;99074.38;108016;1254;73212;-66
2024/02/10 02:14:37;;;;;;;41.20;20.30;;;;;;;5.81;53.87;99070.97;108033;1254;60353;-66
2024/02/10 02:17:05;;;;;;;42.40;23.50;;;;;;;5.76;54.22;99072.52;108094;1254;60318;-65
2024/02/10 02:19:33;;;;;;;46.20;23.30;;;;;;;5.90;53.80;99076.91;108118;1254;72899;-66
2024/02/10 02:22:01;;;;;;;37.40;20.40;;;;;;;5.94;53.96;99073.48;108043;1253;68725;-64
2024/02/10 02:24:28;;;;;;;37.30;21.80;;;;;;;6.05;53.54;99069.44;108078;1253;71492;-65
2024/02/10 02:26:57;;;;;;;48.10;24.00;;;;;;;6.20;53.02;99068.92;108051;1253;61689;-64
2024/02/10 02:29:27;;;;;;;43.00;22.60;;;;;;;6.29;52.95;99068.42;108060;1257;60313;-65
2024/02/10 02:31:59;;;;;;;37.20;18.00;;;;;;;6.26;53.08;99069.04;108074;1254;73921;-65
2024/02/10 02:34:27;;;;;;;39.30;20.50;;;;;;;6.19;53.39;99072.11;108047;1254;70100;-66
2024/02/10 02:36:55;;;;;;;37.90;20.30;;;;;;;6.20;53.28;99070.66;108053;1254;71365;-62
2024/02/10 02:39:22;;;;;;;41.80;21.20;;;;;;;6.26;53.14;99072.02;107949;1253;61729;-66
2024/02/10 02:41:50;;;;;;;38.30;20.40;;;;;;;6.00;53.95;99072.56;108003;1254;60474;-66
2024/02/10 02:44:17;;;;;;;41.70;21.20;;;;;;;5.99;53.99;99073.67;108104;1254;72813;-64
2024/02/10 02:46:45;;;;;;;44.20;23.10;;;;;;;5.91;54.05;99079.00;108015;1254;70448;-64
2024/02/10 02:49:15;;;;;;;38.70;20.70;;;;;;;5.97;54.13;99069.21;108034;1254;71255;-63
2024/02/10 02:51:47;;;;;;;;;;;;;;;6.11;54.01;99066.80;108062;1254;60530;-57
2024/02/10 02:54:14;;;;;;;42.20;22.00;;;;;;;6.08;54.00;99071.95;108049;1254;60349;-64
2024/02/10 02:56:44;;;;;;;40.50;22.40;;;;;;;6.03;54.03;99071.58;108042;1253;73913;-65
2024/02/10 02:59:15;;;;;;;38.30;21.00;;;;;;;6.07;54.04;99076.17;108045;1254;70266;-67
2024/02/10 03:01:43;;;;;;;43.40;21.60;;;;;;;5.98;54.07;99077.86;108080;1254;72170;-66
2024/02/10 03:04:10;;;;;;;41.70;22.00;;;;;;;6.10;53.96;99070.67;108062;1259;60907;-66
2024/02/10 03:06:38;;;;;;;43.40;22.60;;;;;;;6.12;53.96;99074.44;108066;1254;60172;-65
2024/02/10 03:09:08;;;;;;;38.80;21.40;;;;;;;6.01;54.12;99073.93;108072;1253;72898;-61
2024/02/10 03:11:36;;;;;;;41.50;22.00;;;;;;;6.14;53.98;99072.09;108040;1253;68702;-64
2024/02/10 03:14:04;;;;;;;40.30;21.40;;;;;;;6.20;53.94;99075.39;108048;1254;71680;-65
2024/02/10 03:16:33;;;;;;;44.50;22.90;;;;;;;6.12;54.04;99078.10;107893;1254;60447;-67
2024/02/10 03:19:03;;;;;;;42.80;22.20;;;;;;;6.18;53.63;99079.44;108016;1254;59857;-65
2024/02/10 03:21:37;;;;;;;41.10;21.40;;;;;;;6.13;53.93;99074.58;107998;1254;72882;-67
2024/02/10 03:24:06;;;;;;;37.50;21.40;;;;;;;6.20;53.83;99081.12;108038;1253;69205;-66
2024/02/10 03:26:37;;;;;;;37.80;20.90;;;;;;;6.21;53.81;99079.85;108018;1254;72621;-65
2024/02/10 03:29:05;;;;;;;33.50;20.10;;;;;;;6.30;53.53;99081.28;108004;1253;61913;-65
2024/02/10 03:31:33;;;;;;;34.70;19.20;;;;;;;6.36;53.47;99084.54;107988;1253;60336;-66
2024/02/10 03:34:01;;;;;;;36.80;20.90;;;;;;;6.37;53.52;99083.98;108057;1253;73834;-66
2024/02/10 03:36:30;;;;;;;36.30;20.00;;;;;;;6.38;53.49;99085.86;108029;1253;70000;-65
2024/02/10 03:39:07;;;;;;;36.90;19.80;;;;;;;6.15;53.82;99080.95;108037;1257;72745;-63
2024/02/10 03:41:35;;;;;;;35.50;20.00;;;;;;;6.11;54.19;99084.23;107983;1254;61649;-65
2024/02/10 03:44:02;;;;;;;34.20;19.40;;;;;;;6.17;53.86;99080.89;108028;1254;60220;-65
2024/02/10 03:46:32;;;;;;;34.80;18.00;;;;;;;6.29;53.77;99080.44;107957;1254;73885;-66
2024/02/10 03:49:00;;;;;;;41.50;21.50;;;;;;;6.21;54.04;99072.20;108003;1254;71228;-65
2024/02/10 03:51:29;;;;;;;41.10;21.90;;;;;;;6.22;53.86;99069.05;107957;1256;71238;-65
2024/02/10 03:53:57;;;;;;;37.00;20.00;;;;;;;6.25;54.03;99063.87;108004;1254;61670;-64
2024/02/10 03:56:27;;;;;;;39.10;19.30;;;;;;;6.13;54.26;99058.69;107966;1254;61003;-63
2024/02/10 03:58:55;;;;;;;36.20;20.10;;;;;;;6.12;54.14;99054.41;107827;1254;73332;-64
2024/02/10 04:01:23;;;;;;;37.50;20.40;;;;;;;6.08;54.33;99054.01;108042;1254;70301;-65
2024/02/10 04:03:51;;;;;;;33.10;18.40;;;;;;;6.07;54.47;99062.95;108025;1253;72689;-65
2024/02/10 04:06:18;;;;;;;38.70;20.80;;;;;;;6.02;54.66;99072.48;108065;1256;61830;-67
2024/02/10 04:08:46;;;;;;;37.80;20.40;;;;;;;6.16;54.29;99077.77;108086;1256;60307;-66
2024/02/10 04:11:16;;;;;;;40.30;21.30;;;;;;;6.25;54.00;99081.48;108168;1253;73771;-64
2024/02/10 04:13:45;;;;;;;38.10;21.10;;;;;;;6.13;54.49;99084.13;108079;1253;68677;-65
2024/02/10 04:16:13;;;;;;;33.90;18.90;;;;;;;6.29;54.06;99081.65;108188;1254;71642;-63
2024/02/10 04:18:41;;;;;;;38.10;20.20;;;;;;;6.32;54.03;99083.11;107891;1253;60947;-68
2024/02/10 04:21:09;;;;;;;36.10;19.00;;;;;;;6.35;54.08;99078.48;108079;1254;60398;-66
2024/02/10 04:23:37;;;;;;;34.70;19.30;;;;;;;6.44;53.96;99085.45;108096;1253;72866;-66
2024/02/10 04:26:05;;;;;;;38.40;20.70;;;;;;;6.44;53.82;99083.20;108045;1253;70466;-67
2024/02/10 04:28:35;;;;;;;37.80;20.60;;;;;;;6.49;53.79;99084.25;108202;1254;71453;-65
2024/02/10 04:31:04;;;;;;;;;;;;;;;6.56;53.66;99082.94;108103;1256;60908;-66
2024/02/10 04:33:31;;;;;;;33.10;17.90;;;;;;;6.60;53.75;99081.77;108103;1254;60274;-67
2024/02/10 04:35:59;;;;;;;39.50;20.50;;;;;;;6.58;53.79;99079.55;108132;1254;72215;-67
2024/02/10 04:38:27;;;;;;;23.40;11.50;;;;;;;6.59;53.77;99073.94;108100;1253;69498;-65
2024/02/10 04:40:57;;;;;;;33.60;18.00;;;;;;;6.42;54.23;99074.22;108170;1254;72690;-65
2024/02/10 04:43:24;;;;;;;35.70;19.00;;;;;;;6.47;54.06;99072.12;108110;1257;61685;-66
2024/02/10 04:45:53;;;;;;;37.50;20.00;;;;;;;6.45;53.99;99076.70;108157;1252;60505;-65
2024/02/10 04:48:21;;;;;;;34.90;18.90;;;;;;;6.50;53.97;99077.04;108126;1254;72567;-65
2024/02/10 04:50:48;;;;;;;32.80;18.90;;;;;;;6.60;53.86;99071.30;108141;1252;68743;-66
2024/02/10 04:53:16;;;;;;;43.80;21.00;;;;;;;6.51;53.98;99069.70;108021;1253;72201;-66
2024/02/10 04:55:44;;;;;;;37.80;20.40;;;;;;;6.58;53.80;99070.46;108072;1254;60394;-65
2024/02/10 04:58:12;;;;;;;35.10;19.50;;;;;;;6.55;53.83;99072.16;108220;1252;59274;-67
2024/02/10 05:00:41;;;;;;;34.60;20.00;;;;;;;6.43;54.15;99069.29;108157;1254;73373;-65
2024/02/10 05:03:09;;;;;;;38.70;20.30;;;;;;;6.47;54.15;99070.90;108185;1252;70142;-66
2024/02/10 05:05:36;;;;;;;35.50;19.10;;;;;;;6.44;54.19;99075.17;108152;1254;72708;-66
2024/02/10 05:08:06;;;;;;;36.90;19.10;;;;;;;6.50;54.11;99074.29;108051;1254;61694;-66
2024/02/10 05:10:34;;;;;;;27.60;15.00;;;;;;;6.53;53.85;99081.67;108149;1253;60173;-66
2024/02/10 05:13:02;;;;;;;35.60;20.20;;;;;;;6.58;54.02;99088.45;108123;1254;73895;-66
2024/02/10 05:15:29;;;;;;;37.40;18.50;;;;;;;6.57;53.84;99087.79;108178;1254;70254;-66
2024/02/10 05:17:56;;;;;;;36.90;19.90;;;;;;;6.52;53.96;99081.68;108071;1254;71704;-65
2024/02/10 05:20:26;;;;;;;35.10;18.40;;;;;;;6.54;53.92;99085.83;108162;1254;60419;-66
2024/02/10 05:22:58;;;;;;;35.80;19.20;;;;;;;6.43;54.06;99090.76;108149;1253;60030;-65
2024/02/10 05:25:32;;;;;;;33.60;18.40;;;;;;;6.61;53.67;99089.58;108052;1253;73951;-67
2024/02/10 05:28:01;;;;;;;33.60;17.10;;;;;;;6.70;53.49;99086.44;108101;1254;69975;-65
2024/02/10 05:30:29;;;;;;;32.60;17.20;;;;;;;6.70;53.68;99092.17;108061;1254;71366;-66
2024/02/10 05:32:59;;;;;;;34.40;17.70;;;;;;;6.47;54.44;99092.85;108127;1257;61741;-62
2024/02/10 05:35:29;;;;;;;35.60;19.20;;;;;;;6.54;54.23;99092.41;108203;1253;60380;-65
2024/02/10 05:37:59;;;;;;;32.90;16.90;;;;;;;6.43;54.41;99093.19;108069;1253;73890;-65
2024/02/10 05:40:27;;;;;;;35.30;19.40;;;;;;;6.53;54.21;99099.27;108112;1254;70145;-66
2024/02/10 05:43:04;;;;;;;29.10;15.30;;;;;;;6.65;54.03;99107.02;108059;1252;72764;-64
2024/02/10 05:45:34;;;;;;;34.70;17.80;;;;;;;6.55;54.27;99116.63;108050;1254;60346;-65
2024/02/10 05:48:03;;;;;;;35.50;18.40;;;;;;;6.19;55.07;99117.73;108174;1256;60296;-67
2024/02/10 05:50:32;;;;;;;35.70;18.30;;;;;;;6.43;54.43;99105.21;108292;1254;73823;-67
2024/02/10 05:53:00;;;;;;;33.70;18.80;;;;;;;6.53;54.25;99101.17;108179;1253;70261;-66
2024/02/10 05:55:28;;;;;;;33.10;17.80;;;;;;;6.38;54.70;99105.04;108063;1253;72810;-65
2024/02/10 05:58:01;;;;;;;38.20;19.60;;;;;;;6.46;54.57;99115.20;108177;1254;61669;-65
2024/02/10 06:00:30;;;;;;;32.50;17.50;;;;;;;6.64;54.40;99120.33;108049;1253;60314;-66
2024/02/10 06:03:00;;;;;;;36.80;19.00;;;;;;;6.64;54.24;99113.70;108141;1253;73965;-66
2024/02/10 06:05:27;;;;;;;37.60;18.20;;;;;;;6.50;54.43;99109.86;108183;1253;68930;-67
2024/02/10 06:07:56;;;;;;;33.20;17.30;;;;;;;6.49;54.55;99114.22;108094;1254;71392;-64
2024/02/10 06:10:25;;;;;;;41.80;20.90;;;;;;;6.59;54.51;99117.52;108137;1253;60460;-66
2024/02/10 06:12:53;;;;;;;36.60;18.90;;;;;;;6.56;54.37;99111.35;108131;1253;60431;-67
2024/02/10 06:15:23;;;;;;;41.40;20.40;;;;;;;6.64;54.15;99110.02;108197;1253;72580;-68
2024/02/10 06:18:00;;;;;;;53.70;23.80;;;;;;;6.62;54.35;99108.17;108174;1254;70724;-68
2024/02/10 06:20:28;;;;;;;40.20;21.10;;;;;;;6.59;54.17;99109.67;108310;1252;72451;-64
2024/02/10 06:22:57;;;;;;;32.60;16.90;;;;;;;6.65;54.08;99119.92;108141;1254;61606;-63
2024/02/10 06:25:25;;;;;;;38.10;19.00;;;;;;;6.61;54.34;99127.04;108112;1254;60357;-66
2024/02/10 06:27:55;;;;;;;31.90;15.80;;;;;;;6.70;54.15;99133.02;108191;1253;72544;-67
2024/02/10 06:30:32;;;;;;;39.80;19.80;;;;;;;6.61;54.47;99139.77;108156;1254;68720;-67
2024/02/10 06:33:03;;;;;;;38.70;20.00;;;;;;;6.68;54.12;99135.54;108093;1254;71418;-67
2024/02/10 06:35:31;;;;;;;45.20;21.90;;;;;;;6.67;54.31;99139.39;108142;1254;61800;-65
2024/02/10 06:37:59;;;;;;;40.40;19.20;;;;;;;6.87;53.73;99142.14;108197;1254;59977;-66
2024/02/10 06:40:27;;;;;;;35.60;18.70;;;;;;;6.77;54.11;99139.55;108066;1253;72941;-66
2024/02/10 06:42:54;;;;;;;41.10;21.70;;;;;;;6.74;54.17;99136.85;108081;1254;70058;-68
2024/02/10 06:45:24;;;;;;;38.40;18.80;;;;;;;6.78;54.14;99139.15;108039;1254;74874;-67
2024/02/10 06:47:52;;;;;;;45.80;22.70;;;;;;;6.75;54.08;99142.08;108215;1254;60529;-66
2024/02/10 06:50:27;;;;;;;47.00;22.30;;;;;;;6.72;54.17;99137.46;108181;1253;59103;-68
2024/02/10 06:52:59;;;;;;;54.30;27.30;;;;;;;6.81;54.02;99132.58;108166;1253;73807;-63
2024/02/10 06:55:29;;;;;;;45.00;21.70;;;;;;;6.79;54.27;99130.59;108105;1253;69179;-64
2024/02/10 06:57:56;;;;;;;39.80;19.70;;;;;;;6.89;54.09;99129.83;108181;1254;72669;-65
2024/02/10 07:00:24;;;;;;;36.50;18.80;;;;;;;6.98;53.73;99135.27;108203;1252;60306;-67
2024/02/10 07:02:56;;;;;;;33.80;18.70;;;;;;;6.89;53.86;99134.37;108130;1254;60213;-66
2024/02/10 07:05:24;;;;;;;31.00;17.30;;;;;;;6.96;53.86;99134.65;108108;1254;73852;-67
2024/02/10 07:07:53;;;;;;;40.70;19.70;;;;;;;7.10;53.71;99135.16;108052;1253;70157;-66
2024/02/10 07:10:23;;;;;;;42.50;20.30;;;;;;;6.99;53.80;99144.48;107997;1253;71498;-67
2024/02/10 07:12:54;;;;;;;45.00;20.70;;;;;;;7.02;54.05;99148.89;107960;1253;60465;-67
2024/02/10 07:15:29;;;;;;;43.30;21.50;;;;;;;7.28;53.39;99151.04;107974;1254;60352;-66
2024/02/10 07:18:02;;;;;;;46.40;22.40;;;;;;;7.13;53.74;99151.78;108006;1253;74393;-66
2024/02/10 07:20:32;;;;;;;42.30;20.30;;;;;;;7.18;53.61;99154.58;108035;1253;69989;-66
2024/02/10 07:25:19;;;;;;;43.20;21.00;;;;;;;4.79;59.87;99167.11;104931;1289;600888;-67
2024/02/10 07:27:46;;;;;;;40.20;20.70;;;;;;;6.00;56.88;99160.39;107421;1267;60411;-66
2024/02/10 07:30:15;;;;;;;38.40;20.50;;;;;;;6.28;56.23;99158.03;107395;1264;60365;-67
2024/02/10 07:32:44;;;;;;;38.50;19.20;;;;;;;6.47;55.88;99155.79;107325;1264;72069;-67
2024/02/10 07:35:12;;;;;;;47.60;18.80;;;;;;;6.61;55.19;99156.88;107277;1267;70376;-65
2024/02/10 07:37:40;;;;;;;36.40;18.00;;;;;;;6.58;55.29;99159.27;107223;1266;71832;-67
2024/02/10 07:40:10;;;;;;;31.10;17.50;;;;;;;6.30;56.05;99159.20;107243;1263;141376;-67
2024/02/10 07:42:38;;;;;;;33.70;17.70;;;;;;;6.22;56.10;99154.77;107358;1263;59962;-68
2024/02/10 07:45:07;;;;;;;31.30;16.10;;;;;;;6.20;56.15;99155.38;107343;1264;72225;-66
2024/02/10 07:47:34;;;;;;;31.30;16.50;;;;;;;6.30;55.90;99157.61;107314;1269;70009;-67
2024/02/10 07:50:03;;;;;;;24.10;13.30;;;;;;;6.39;55.68;99153.81;107296;1263;71401;-67
2024/02/10 07:52:31;;;;;;;29.00;16.00;;;;;;;6.51;55.66;99152.52;107342;1264;59497;-67
2024/02/10 07:54:59;;;;;;;28.80;15.10;;;;;;;6.38;55.96;99155.44;107371;1264;60186;-67
2024/02/10 07:57:29;;;;;;;30.50;15.50;;;;;;;6.41;55.77;99154.28;107319;1263;72940;-67
2024/02/10 07:59:56;;;;;;;33.30;16.00;;;;;;;6.68;55.15;99155.73;107345;1263;70371;-67
2024/02/10 08:02:27;;;;;;;23.90;12.10;;;;;;;6.70;55.23;99159.84;107261;1264;72731;-67
2024/02/10 08:04:56;;;;;;;34.00;15.60;;;;;;;6.74;55.17;99155.85;107248;1263;59644;-67
2024/02/10 08:07:29;;;;;;;23.30;12.90;;;;;;;6.96;54.59;99153.15;107322;1267;60214;-67
2024/02/10 08:09:58;;;;;;;30.00;13.40;;;;;;;6.65;55.33;99155.16;107281;1263;73108;-66
2024/02/10 08:12:26;;;;;;;25.70;13.50;;;;;;;6.59;55.55;99149.08;107298;1263;69070;-66
2024/02/10 08:14:54;;;;;;;23.70;13.50;;;;;;;6.49;55.70;99150.52;107283;1263;72683;-66
2024/02/10 08:17:26;;;;;;;21.40;11.40;;;;;;;6.64;55.48;99145.42;107410;1264;60883;-67
2024/02/10 08:19:56;;;;;;;16.60;9.30;;;;;;;6.82;55.04;99149.66;108147;1254;59652;-67
2024/02/10 08:22:30;;;;;;;18.40;11.80;;;;;;;6.77;55.18;99149.48;108146;1257;73057;-67
2024/02/10 08:24:59;;;;;;;21.10;12.00;;;;;;;6.76;55.23;99148.31;108215;1254;70556;-67
2024/02/10 08:27:29;;;;;;;21.40;11.70;;;;;;;6.56;55.58;99144.30;108109;1254;71486;-66
2024/02/10 08:29:58;;;;;;;23.40;12.00;;;;;;;6.62;55.80;99143.75;108061;1254;60746;-67
2024/02/10 08:32:26;;;;;;;23.00;12.10;;;;;;;6.78;55.52;99140.38;108165;1254;59407;-67
2024/02/10 08:34:55;;;;;;;20.00;11.50;;;;;;;6.39;56.11;99146.13;108072;1252;71500;-67
2024/02/10 08:37:23;;;;;;;18.40;11.80;;;;;;;6.26;56.61;99146.27;108351;1252;69201;-67
2024/02/10 08:39:51;;;;;;;19.30;12.40;;;;;;;6.73;55.68;99141.80;108108;1253;72847;-67
2024/02/10 08:42:19;;;;;;;20.80;10.60;;;;;;;6.75;55.66;99142.59;108117;1253;61118;-67
2024/02/10 08:44:47;;;;;;;20.90;11.70;;;;;;;6.82;55.50;99143.54;108098;1254;60207;-67
2024/02/10 08:47:15;;;;;;;20.80;11.60;;;;;;;6.72;55.43;99144.26;108090;1253;73069;-67
2024/02/10 08:49:44;;;;;;;21.50;12.00;;;;;;;6.70;55.48;99146.10;108082;1253;70335;-67
2024/02/10 08:52:16;;;;;;;18.90;11.50;;;;;;;6.64;55.81;99147.15;108128;1254;71184;-67
2024/02/10 08:54:46;;;;;;;19.90;12.20;;;;;;;6.60;55.89;99148.19;108323;1252;60745;-67
2024/02/10 08:57:15;;;;;;;20.90;11.70;;;;;;;6.76;55.31;99152.31;108203;1252;59541;-67
2024/02/10 08:59:48;;;;;;;21.90;12.20;;;;;;;6.83;55.60;99152.06;108131;1254;72950;-67
2024/02/10 09:02:22;;;;;;;19.70;11.30;;;;;;;6.96;55.39;99147.89;108165;1257;68731;-67
2024/02/10 09:04:53;;;;;;;19.60;12.50;;;;;;;6.90;55.53;99145.86;108075;1254;74979;-67
2024/02/10 09:07:21;;;;;;;;;;;;;;;7.19;54.91;99141.41;108122;1254;59707;-67
2024/02/10 09:09:49;;;;;;;17.00;10.90;;;;;;;7.20;54.68;99142.25;108089;1254;60091;-67
2024/02/10 09:12:16;;;;;;;16.30;10.10;;;;;;;7.17;54.66;99144.29;108189;1254;73108;-67
2024/02/10 09:14:46;;;;;;;21.00;11.60;;;;;;;7.05;54.98;99141.63;108339;1254;68025;-67
2024/02/10 09:17:14;;;;;;;17.20;10.20;;;;;;;7.10;55.06;99137.77;108125;1253;74591;-67
2024/02/10 09:19:41;;;;;;;20.70;9.90;;;;;;;7.09;55.07;99136.08;108205;1253;59717;-67
2024/02/10 09:22:10;;;;;;;40.20;18.90;;;;;;;6.96;55.28;99132.71;108138;1252;59125;-67
2024/02/10 09:24:39;;;;;;;26.70;13.90;;;;;;;7.07;54.92;99134.92;108156;1252;71341;-67
2024/02/10 09:27:10;;;;;;;29.20;15.30;;;;;;;7.11;55.05;99140.86;108104;1254;70185;-67
2024/02/10 09:29:38;;;;;;;24.20;12.90;;;;;;;7.18;54.82;99139.55;108155;1254;71525;-67
2024/02/10 09:32:06;;;;;;;18.50;11.60;;;;;;;7.17;55.07;99140.11;108231;1253;60366;-67
2024/02/10 09:34:34;;;;;;;25.10;12.60;;;;;;;7.16;54.85;99139.13;108081;1253;62789;-67
2024/02/10 09:37:03;;;;;;;21.40;12.00;;;;;;;7.12;54.81;99140.65;108186;1253;71856;-67
2024/02/10 09:39:30;;;;;;;21.20;12.70;;;;;;;7.25;54.47;99141.04;108176;1254;69824;-67
2024/02/10 09:42:00;;;;;;;18.50;11.20;;;;;;;7.26;54.71;99132.78;108111;1254;72879;-65
2024/02/10 09:44:33;;;;;;;21.60;12.90;;;;;;;7.24;54.73;99130.41;108154;1253;59599;-66
2024/02/10 09:47:01;;;;;;;18.70;11.30;;;;;;;7.22;54.74;99131.02;108211;1256;60203;-66
2024/02/10 09:49:35;;;;;;;18.40;10.40;;;;;;;7.22;54.82;99131.87;108153;1257;72176;-67
2024/02/10 09:52:03;;;;;;;22.00;10.70;;;;;;;7.33;54.65;99131.64;108175;1253;70117;-67
2024/02/10 09:54:31;;;;;;;21.00;10.90;;;;;;;7.32;54.69;99132.90;108275;1254;72678;-67
2024/02/10 09:56:58;;;;;;;20.30;11.30;;;;;;;7.24;55.02;99128.12;108043;1254;60841;-66
2024/02/10 09:59:26;;;;;;;16.70;9.40;;;;;;;7.31;54.68;99125.95;107924;1252;59484;-67
2024/02/10 10:01:55;;;;;;;17.40;10.30;;;;;;;7.20;54.85;99125.48;108059;1254;73112;-67
2024/02/10 10:04:23;;;;;;;20.10;10.30;;;;;;;7.15;55.03;99126.04;108114;1254;70125;-67
2024/02/10 10:06:51;;;;;;;18.90;10.00;;;;;;;7.32;54.48;99123.98;108070;1254;74298;-66
2024/02/10 10:09:18;;;;;;;20.00;10.70;;;;;;;7.41;54.38;99127.85;108061;1253;60916;-67
2024/02/10 10:11:50;;;;;;;17.70;9.60;;;;;;;7.53;54.36;99124.39;108117;1252;59254;-66
2024/02/10 10:14:19;;;;;;;22.60;12.20;;;;;;;7.42;54.39;99121.67;108071;1252;74265;-65
2024/02/10 10:16:58;;;;;;;31.10;15.40;;;;;;;7.38;54.58;99122.88;108139;1254;70981;-65
2024/02/10 10:19:27;;;;;;;18.10;11.00;;;;;;;7.38;54.45;99123.59;108287;1253;72486;-65
2024/02/10 10:21:56;;;;;;;15.50;9.40;;;;;;;7.49;54.37;99127.88;108152;1253;59823;-66
2024/02/10 10:24:25;;;;;;;19.10;10.20;;;;;;;7.51;54.27;99124.78;108070;1253;60082;-67
2024/02/10 10:26:53;;;;;;;21.30;12.70;;;;;;;7.68;53.99;99123.22;108248;1254;72999;-66
2024/02/10 10:29:21;;;;;;;18.20;10.50;;;;;;;7.56;54.13;99124.96;108277;1252;69021;-66
2024/02/10 10:31:49;;;;;;;21.30;12.40;;;;;;;7.58;54.15;99124.02;108377;1254;72726;-66
2024/02/10 10:34:20;;;;;;;17.80;9.60;;;;;;;7.53;54.11;99126.98;108045;1255;59615;-66
2024/02/10 10:36:48;;;;;;;;;;;;;;;7.38;54.51;99127.23;108104;1253;59600;-66
2024/02/10 10:39:16;;;;;;;20.30;11.40;;;;;;;7.39;54.39;99126.68;108104;1259;72985;-66
2024/02/10 10:41:44;;;;;;;16.90;9.80;;;;;;;7.14;55.04;99128.52;108027;1254;70228;-67
2024/02/10 10:44:14;;;;;;;15.40;9.70;;;;;;;7.31;54.77;99128.56;108080;1254;72391;-66
2024/02/10 10:46:42;;;;;;;21.00;11.90;;;;;;;7.42;54.49;99124.81;108147;1253;60849;-66
2024/02/10 10:49:10;;;;;;;21.30;12.70;;;;;;;7.46;54.47;99118.89;108095;1253;61009;-67
2024/02/10 10:51:52;;;;;;;19.80;11.50;;;;;;;7.43;54.57;99118.52;108147;1253;75036;-66
2024/02/10 10:54:20;;;;;;;17.90;10.70;;;;;;;7.46;54.47;99119.06;108077;1253;70513;-67
2024/02/10 10:56:48;;;;;;;19.70;11.10;;;;;;;7.35;54.74;99115.66;108052;1254;72665;-66
2024/02/10 10:59:16;;;;;;;18.00;10.50;;;;;;;7.39;54.66;99110.96;107903;1260;61344;-66
2024/02/10 11:01:45;;;;;;;16.80;10.50;;;;;;;7.54;54.33;99104.96;108116;1253;60215;-66
2024/02/10 11:04:14;;;;;;;16.60;10.70;;;;;;;7.63;54.21;99104.23;108009;1253;73050;-66
2024/02/10 11:06:45;;;;;;;22.90;12.10;;;;;;;7.56;54.36;99101.90;108139;1253;69936;-67
2024/02/10 11:09:17;;;;;;;28.80;16.20;;;;;;;7.67;54.15;99103.52;108101;1255;71914;-67
2024/02/10 11:11:46;;;;;;;21.40;12.00;;;;;;;7.80;53.72;99100.91;108231;1254;59611;-66
2024/02/10 11:14:13;;;;;;;37.70;17.00;;;;;;;7.65;54.07;99100.13;108115;1254;59499;-67
2024/02/10 11:16:44;;;;;;;19.80;10.70;;;;;;;7.59;54.18;99098.95;108104;1254;72821;-66
2024/02/10 11:19:15;;;;;;;18.70;11.10;;;;;;;7.62;54.30;99095.89;107916;1260;70127;-65
2024/02/10 11:21:46;;;;;;;22.40;11.10;;;;;;;7.58;54.34;99092.73;108090;1256;73746;-66
2024/02/10 11:24:19;;;;;;;17.20;10.00;;;;;;;7.71;53.93;99093.55;107922;1253;61117;-68
2024/02/10 11:26:47;;;;;;;19.40;11.80;;;;;;;7.70;53.87;99099.03;108152;1252;60232;-66
2024/02/10 11:29:18;;;;;;;21.30;11.50;;;;;;;7.62;54.05;99099.23;108097;1252;71895;-66